sensor_id;sensor_type;location;lat;lon;timestamp;pressure;altitude;pressure_sealevel;temperature;humidity
65553;BME280;52465;51.560;14.368;2023-06-10T00:01:07;100135.63;;;22.85;51.04
65553;BME280;52465;51.560;14.368;2023-06-10T00:03:32;100138.53;;;22.84;51.16
65553;BME280;52465;51.560;14.368;2023-06-10T00:05:58;100145.63;;;22.90;51.27
65553;BME280;52465;51.560;14.368;2023-06-10T00:08:23;100129.84;;;22.88;51.25
65553;BME280;52465;51.560;14.368;2023-06-10T00:10:49;100128.22;;;22.87;51.66
65553;BME280;52465;51.560;14.368;2023-06-10T00:13:15;100122.75;;;22.82;51.24
65553;BME280;52465;51.560;14.368;2023-06-10T00:15:41;100103.22;;;22.65;51.27
65553;BME280;52465;51.560;14.368;2023-06-10T00:18:07;100125.91;;;22.79;51.30
65553;BME280;52465;51.560;14.368;2023-06-10T00:20:34;100126.94;;;22.78;51.50
65553;BME280;52465;51.560;14.368;2023-06-10T00:23:01;100143.06;;;22.83;51.55
65553;BME280;52465;51.560;14.368;2023-06-10T00:25:26;100133.69;;;22.81;51.67
65553;BME280;52465;51.560;14.368;2023-06-10T00:27:52;100143.06;;;22.83;51.51
65553;BME280;52465;51.560;14.368;2023-06-10T00:30:17;100129.56;;;22.73;51.63
65553;BME280;52465;51.560;14.368;2023-06-10T00:32:43;100148.09;;;22.80;51.57
65553;BME280;52465;51.560;14.368;2023-06-10T00:35:08;100150.41;;;22.76;51.42
65553;BME280;52465;51.560;14.368;2023-06-10T00:37:34;100154.13;;;22.75;51.33
65553;BME280;52465;51.560;14.368;2023-06-10T00:40:03;100153.63;;;22.78;51.94
65553;BME280;52465;51.560;14.368;2023-06-10T00:42:29;100147.91;;;22.69;51.65
65553;BME280;52465;51.560;14.368;2023-06-10T00:44:55;100152.28;;;22.76;51.68
65553;BME280;52465;51.560;14.368;2023-06-10T00:47:20;100150.91;;;22.73;51.62
65553;BME280;52465;51.560;14.368;2023-06-10T00:49:47;100160.28;;;22.76;51.85
65553;BME280;52465;51.560;14.368;2023-06-10T00:52:13;100145.78;;;22.71;51.87
65553;BME280;52465;51.560;14.368;2023-06-10T00:54:39;100152.72;;;22.73;51.55
65553;BME280;52465;51.560;14.368;2023-06-10T00:57:05;100161.56;;;22.73;51.79
65553;BME280;52465;51.560;14.368;2023-06-10T00:59:31;100148.03;;;22.63;51.79
65553;BME280;52465;51.560;14.368;2023-06-10T01:04:08;100167.94;;;22.72;51.50
65553;BME280;52465;51.560;14.368;2023-06-10T01:11:01;100184.44;;;22.69;51.57
65553;BME280;52465;51.560;14.368;2023-06-10T01:13:29;100192.09;;;22.65;51.83
65553;BME280;52465;51.560;14.368;2023-06-10T01:15:57;100203.38;;;22.67;51.90
65553;BME280;52465;51.560;14.368;2023-06-10T01:18:23;100194.47;;;22.62;52.32
65553;BME280;52465;51.560;14.368;2023-06-10T01:20:49;100207.88;;;22.67;52.38
65553;BME280;52465;51.560;14.368;2023-06-10T01:23:15;100207.19;;;22.60;52.25
65553;BME280;52465;51.560;14.368;2023-06-10T01:25:47;100197.34;;;22.60;52.29
65553;BME280;52465;51.560;14.368;2023-06-10T01:35:44;100205.59;;;22.59;52.13
65553;BME280;52465;51.560;14.368;2023-06-10T01:38:13;100206.66;;;22.58;51.99
65553;BME280;52465;51.560;14.368;2023-06-10T01:40:40;100212.78;;;22.58;52.28
65553;BME280;52465;51.560;14.368;2023-06-10T01:43:05;100227.19;;;22.57;51.94
65553;BME280;52465;51.560;14.368;2023-06-10T01:45:30;100215.81;;;22.50;52.05
65553;BME280;52465;51.560;14.368;2023-06-10T01:47:56;100215.91;;;22.55;52.10
65553;BME280;52465;51.560;14.368;2023-06-10T01:50:21;100223.91;;;22.55;51.92
65553;BME280;52465;51.560;14.368;2023-06-10T01:52:46;100222.19;;;22.49;52.30
65553;BME280;52465;51.560;14.368;2023-06-10T01:55:12;100224.16;;;22.54;52.22
65553;BME280;52465;51.560;14.368;2023-06-10T01:57:37;100226.25;;;22.52;52.23
65553;BME280;52465;51.560;14.368;2023-06-10T02:00:03;100222.78;;;22.51;52.17
65553;BME280;52465;51.560;14.368;2023-06-10T02:02:28;100230.19;;;22.49;52.20
65553;BME280;52465;51.560;14.368;2023-06-10T02:04:53;100236.94;;;22.52;52.14
65553;BME280;52465;51.560;14.368;2023-06-10T02:07:19;100229.16;;;22.50;52.68
65553;BME280;52465;51.560;14.368;2023-06-10T02:09:44;100219.53;;;22.49;52.37
65553;BME280;52465;51.560;14.368;2023-06-10T02:12:10;100226.72;;;22.49;52.56
65553;BME280;52465;51.560;14.368;2023-06-10T02:14:35;100224.31;;;22.47;52.48
65553;BME280;52465;51.560;14.368;2023-06-10T02:17:01;100207.28;;;22.36;52.46
65553;BME280;52465;51.560;14.368;2023-06-10T02:19:26;100221.88;;;22.46;52.55
65553;BME280;52465;51.560;14.368;2023-06-10T02:21:52;100225.00;;;22.42;52.36
65553;BME280;52465;51.560;14.368;2023-06-10T02:24:18;100218.63;;;22.43;52.56
65553;BME280;52465;51.560;14.368;2023-06-10T02:26:43;100222.91;;;22.44;52.72
65553;BME280;52465;51.560;14.368;2023-06-10T02:29:09;100236.22;;;22.44;52.66
65553;BME280;52465;51.560;14.368;2023-06-10T02:33:38;100214.22;;;22.37;52.57
65553;BME280;52465;51.560;14.368;2023-06-10T02:36:06;100221.53;;;22.42;52.65
65553;BME280;52465;51.560;14.368;2023-06-10T02:38:31;100209.25;;;22.29;52.61
65553;BME280;52465;51.560;14.368;2023-06-10T02:40:56;100227.91;;;22.41;52.32
65553;BME280;52465;51.560;14.368;2023-06-10T02:43:22;100224.66;;;22.39;52.77
65553;BME280;52465;51.560;14.368;2023-06-10T02:45:47;100217.59;;;22.33;52.51
65553;BME280;52465;51.560;14.368;2023-06-10T02:48:12;100223.28;;;22.36;52.51
65553;BME280;52465;51.560;14.368;2023-06-10T02:50:38;100224.09;;;22.37;52.57
65553;BME280;52465;51.560;14.368;2023-06-10T02:53:05;100207.88;;;22.27;52.51
65553;BME280;52465;51.560;14.368;2023-06-10T02:55:30;100224.31;;;22.35;52.50
65553;BME280;52465;51.560;14.368;2023-06-10T02:57:56;100225.13;;;22.36;52.60
65553;BME280;52465;51.560;14.368;2023-06-10T03:00:21;100223.16;;;22.31;52.95
65553;BME280;52465;51.560;14.368;2023-06-10T03:02:47;100210.19;;;22.23;52.89
65553;BME280;52465;51.560;14.368;2023-06-10T03:05:14;100236.03;;;22.34;52.79
65553;BME280;52465;51.560;14.368;2023-06-10T03:07:40;100229.06;;;22.33;52.93
65553;BME280;52465;51.560;14.368;2023-06-10T03:10:06;100232.78;;;22.32;52.62
65553;BME280;52465;51.560;14.368;2023-06-10T03:12:32;100236.50;;;22.31;52.92
65553;BME280;52465;51.560;14.368;2023-06-10T03:14:57;100227.72;;;22.19;52.76
65553;BME280;52465;51.560;14.368;2023-06-10T03:17:22;100232.09;;;22.25;52.67
65553;BME280;52465;51.560;14.368;2023-06-10T03:19:49;100233.72;;;22.26;52.89
65553;BME280;52465;51.560;14.368;2023-06-10T03:22:15;100236.38;;;22.26;52.72
65553;BME280;52465;51.560;14.368;2023-06-10T03:24:41;100219.59;;;22.14;53.01
65553;BME280;52465;51.560;14.368;2023-06-10T03:27:07;100254.00;;;22.27;53.10
65553;BME280;52465;51.560;14.368;2023-06-10T03:29:33;100228.75;;;22.18;53.08
65553;BME280;52465;51.560;14.368;2023-06-10T03:31:58;100243.59;;;22.26;52.96
65553;BME280;52465;51.560;14.368;2023-06-10T03:34:24;100227.34;;;22.15;52.79
65553;BME280;52465;51.560;14.368;2023-06-10T03:36:50;100241.59;;;22.21;52.86
65553;BME280;52465;51.560;14.368;2023-06-10T03:39:15;100250.09;;;22.18;53.10
65553;BME280;52465;51.560;14.368;2023-06-10T03:41:41;100251.72;;;22.19;53.03
65553;BME280;52465;51.560;14.368;2023-06-10T03:44:06;100259.22;;;22.22;53.08
65553;BME280;52465;51.560;14.368;2023-06-10T03:46:32;100260.88;;;22.23;52.82
65553;BME280;52465;51.560;14.368;2023-06-10T03:48:57;100258.09;;;22.18;53.10
65553;BME280;52465;51.560;14.368;2023-06-10T03:51:25;100258.91;;;22.18;52.90
65553;BME280;52465;51.560;14.368;2023-06-10T03:53:51;100259.13;;;22.17;53.13
65553;BME280;52465;51.560;14.368;2023-06-10T03:56:16;100268.28;;;22.21;52.96
65553;BME280;52465;51.560;14.368;2023-06-10T03:58:41;100259.13;;;22.17;53.25
65553;BME280;52465;51.560;14.368;2023-06-10T04:01:07;100252.03;;;22.11;53.03
65553;BME280;52465;51.560;14.368;2023-06-10T04:03:32;100268.75;;;22.18;53.34
65553;BME280;52465;51.560;14.368;2023-06-10T04:08:56;100265.50;;;22.16;53.01
65553;BME280;52465;51.560;14.368;2023-06-10T04:11:24;100277.81;;;22.17;52.88
65553;BME280;52465;51.560;14.368;2023-06-10T04:13:50;100280.47;;;22.17;53.24
65553;BME280;52465;51.560;14.368;2023-06-10T04:16:16;100266.44;;;22.10;53.07
65553;BME280;52465;51.560;14.368;2023-06-10T04:18:41;100267.03;;;22.12;53.21
65553;BME280;52465;51.560;14.368;2023-06-10T04:21:09;100273.72;;;22.14;53.81
65553;BME280;52465;51.560;14.368;2023-06-10T04:23:35;100273.81;;;22.08;53.32
65553;BME280;52465;51.560;14.368;2023-06-10T04:26:02;100276.16;;;22.16;53.25
65553;BME280;52465;51.560;14.368;2023-06-10T04:28:27;100273.72;;;22.14;53.18
65553;BME280;52465;51.560;14.368;2023-06-10T04:30:53;100274.78;;;22.13;53.49
65553;BME280;52465;51.560;14.368;2023-06-10T04:33:18;100273.72;;;22.14;53.06
65553;BME280;52465;51.560;14.368;2023-06-10T04:35:43;100263.97;;;22.08;53.16
65553;BME280;52465;51.560;14.368;2023-06-10T04:38:09;100269.09;;;22.10;53.21
65553;BME280;52465;51.560;14.368;2023-06-10T04:40:35;100275.81;;;22.12;53.06
65553;BME280;52465;51.560;14.368;2023-06-10T04:43:00;100280.34;;;22.12;53.22
65553;BME280;52465;51.560;14.368;2023-06-10T04:45:25;100272.56;;;22.10;53.32
65553;BME280;52465;51.560;14.368;2023-06-10T04:47:51;100271.75;;;22.10;53.44
65553;BME280;52465;51.560;14.368;2023-06-10T04:50:16;100274.28;;;22.05;53.34
65553;BME280;52465;51.560;14.368;2023-06-10T04:52:42;100260.00;;;21.99;53.29
65553;BME280;52465;51.560;14.368;2023-06-10T04:55:08;100283.03;;;22.12;53.14
65553;BME280;52465;51.560;14.368;2023-06-10T04:57:34;100272.66;;;22.04;53.26
65553;BME280;52465;51.560;14.368;2023-06-10T04:59:59;100284.03;;;22.11;53.51
65553;BME280;52465;51.560;14.368;2023-06-10T05:02:24;100282.41;;;22.10;53.23
65553;BME280;52465;51.560;14.368;2023-06-10T05:04:50;100279.75;;;22.10;53.49
65553;BME280;52465;51.560;14.368;2023-06-10T05:07:15;100295.75;;;22.10;53.33
65553;BME280;52465;51.560;14.368;2023-06-10T05:09:40;100287.38;;;22.06;53.65
65553;BME280;52465;51.560;14.368;2023-06-10T05:12:06;100288.78;;;22.09;53.31
65553;BME280;52465;51.560;14.368;2023-06-10T05:14:32;100284.72;;;22.06;53.42
65553;BME280;52465;51.560;14.368;2023-06-10T05:16:57;100302.91;;;22.09;53.27
65553;BME280;52465;51.560;14.368;2023-06-10T05:19:22;100293.28;;;22.08;53.41
65553;BME280;52465;51.560;14.368;2023-06-10T05:21:47;100290.06;;;22.06;53.56
65553;BME280;52465;51.560;14.368;2023-06-10T05:24:13;100289.59;;;22.09;53.47
65553;BME280;52465;51.560;14.368;2023-06-10T05:26:38;100296.78;;;22.09;53.36
65553;BME280;52465;51.560;14.368;2023-06-10T05:29:04;100298.63;;;22.08;53.46
65553;BME280;52465;51.560;14.368;2023-06-10T05:31:30;100293.16;;;22.03;53.63
65553;BME280;52465;51.560;14.368;2023-06-10T05:33:56;100298.63;;;22.08;53.57
65553;BME280;52465;51.560;14.368;2023-06-10T05:36:21;100297.13;;;22.01;53.42
65553;BME280;52465;51.560;14.368;2023-06-10T05:38:48;100294.47;;;22.01;53.43
65553;BME280;52465;51.560;14.368;2023-06-10T05:41:13;100294.47;;;22.01;53.36
65553;BME280;52465;51.560;14.368;2023-06-10T05:43:38;100296.06;;;22.02;53.52
65553;BME280;52465;51.560;14.368;2023-06-10T05:46:05;100289.13;;;22.01;53.65
65553;BME280;52465;51.560;14.368;2023-06-10T05:48:30;100283.88;;;21.94;53.82
65553;BME280;52465;51.560;14.368;2023-06-10T05:50:55;100301.53;;;22.07;53.83
65553;BME280;52465;51.560;14.368;2023-06-10T05:53:21;100302.59;;;22.06;53.66
65553;BME280;52465;51.560;14.368;2023-06-10T05:55:46;100292.00;;;21.99;53.80
65553;BME280;52465;51.560;14.368;2023-06-10T05:58:13;100296.06;;;22.02;53.58
65553;BME280;52465;51.560;14.368;2023-06-10T06:00:39;100293.97;;;22.04;53.68
65553;BME280;52465;51.560;14.368;2023-06-10T06:03:07;100278.22;;;21.90;53.79
65553;BME280;52465;51.560;14.368;2023-06-10T06:05:36;100300.72;;;22.06;53.83
65553;BME280;52465;51.560;14.368;2023-06-10T06:08:05;100296.31;;;22.00;53.64
65553;BME280;52465;51.560;14.368;2023-06-10T06:10:31;100299.91;;;22.06;53.60
65553;BME280;52465;51.560;14.368;2023-06-10T06:12:56;100303.59;;;22.05;53.79
65553;BME280;52465;51.560;14.368;2023-06-10T06:15:22;100297.25;;;22.06;53.77
65553;BME280;52465;51.560;14.368;2023-06-10T06:17:47;100298.75;;;22.02;53.83
65553;BME280;52465;51.560;14.368;2023-06-10T06:20:14;100290.88;;;21.95;53.92
65553;BME280;52465;51.560;14.368;2023-06-10T06:22:39;100300.94;;;22.05;53.47
65553;BME280;52465;51.560;14.368;2023-06-10T06:25:05;100297.13;;;22.01;53.80
65553;BME280;52465;51.560;14.368;2023-06-10T06:27:31;100286.53;;;21.94;53.74
65553;BME280;52465;51.560;14.368;2023-06-10T06:29:56;100307.44;;;22.09;53.81
65553;BME280;52465;51.560;14.368;2023-06-10T06:32:22;100314.41;;;22.10;53.87
65553;BME280;52465;51.560;14.368;2023-06-10T06:34:48;100291.66;;;21.96;53.88
65553;BME280;52465;51.560;14.368;2023-06-10T06:37:19;100314.41;;;22.10;53.54
65553;BME280;52465;51.560;14.368;2023-06-10T06:39:44;100314.22;;;22.11;53.76
65553;BME280;52465;51.560;14.368;2023-06-10T06:42:09;100311.75;;;22.10;53.75
65553;BME280;52465;51.560;14.368;2023-06-10T06:44:35;100313.56;;;22.09;53.72
65553;BME280;52465;51.560;14.368;2023-06-10T06:47:00;100314.22;;;22.11;53.42
65553;BME280;52465;51.560;14.368;2023-06-10T06:49:25;100313.16;;;22.12;53.68
65553;BME280;52465;51.560;14.368;2023-06-10T06:51:50;100316.63;;;22.13;53.42
65553;BME280;52465;51.560;14.368;2023-06-10T06:54:16;100318.69;;;22.11;53.85
65553;BME280;52465;51.560;14.368;2023-06-10T06:56:41;100323.59;;;22.14;53.56
65553;BME280;52465;51.560;14.368;2023-06-10T06:59:06;100319.88;;;22.15;53.74
65553;BME280;52465;51.560;14.368;2023-06-10T07:01:33;100304.88;;;22.02;53.64
65553;BME280;52465;51.560;14.368;2023-06-10T07:03:58;100309.53;;;22.07;53.60
65553;BME280;52465;51.560;14.368;2023-06-10T07:06:23;100319.31;;;22.13;53.67
65553;BME280;52465;51.560;14.368;2023-06-10T07:08:50;100332.97;;;22.16;53.35
65553;BME280;52465;51.560;14.368;2023-06-10T07:11:16;100319.41;;;22.18;53.30
65553;BME280;52465;51.560;14.368;2023-06-10T07:13:42;100311.16;;;22.08;53.83
65553;BME280;52465;51.560;14.368;2023-06-10T07:16:08;100333.91;;;22.22;53.43
65553;BME280;52465;51.560;14.368;2023-06-10T07:18:33;100332.28;;;22.21;53.35
65553;BME280;52465;51.560;14.368;2023-06-10T07:20:58;100334.94;;;22.21;53.68
65553;BME280;52465;51.560;14.368;2023-06-10T07:23:23;100325.91;;;22.22;53.40
65553;BME280;52465;51.560;14.368;2023-06-10T07:25:49;100331.03;;;22.24;53.33
65553;BME280;52465;51.560;14.368;2023-06-10T07:28:15;100319.06;;;22.14;53.55
65553;BME280;52465;51.560;14.368;2023-06-10T07:30:40;100334.25;;;22.26;53.53
65553;BME280;52465;51.560;14.368;2023-06-10T07:33:06;100323.34;;;22.15;53.33
65553;BME280;52465;51.560;14.368;2023-06-10T07:35:33;100339.34;;;22.27;53.45
65553;BME280;52465;51.560;14.368;2023-06-10T07:37:58;100337.16;;;22.24;53.56
65553;BME280;52465;51.560;14.368;2023-06-10T07:42:29;100342.13;;;22.32;53.12
65553;BME280;52465;51.560;14.368;2023-06-10T07:44:54;100330.53;;;22.27;53.40
65553;BME280;52465;51.560;14.368;2023-06-10T07:47:20;100342.13;;;22.32;53.16
65553;BME280;52465;51.560;14.368;2023-06-10T07:49:45;100340.06;;;22.34;53.33
65553;BME280;52465;51.560;14.368;2023-06-10T07:52:11;100336.59;;;22.34;53.11
65553;BME280;52465;51.560;14.368;2023-06-10T07:54:36;100341.69;;;22.35;53.39
65553;BME280;52465;51.560;14.368;2023-06-10T07:57:01;100342.03;;;22.39;53.00
65553;BME280;52465;51.560;14.368;2023-06-10T07:59:26;100331.25;;;22.34;53.20
65553;BME280;52465;51.560;14.368;2023-06-10T08:01:52;100336.22;;;22.42;53.16
65553;BME280;52465;51.560;14.368;2023-06-10T08:04:18;100343.88;;;22.38;52.92
65553;BME280;52465;51.560;14.368;2023-06-10T08:06:43;100342.38;;;22.42;53.20
65553;BME280;52465;51.560;14.368;2023-06-10T08:09:08;100347.03;;;22.47;52.82
65553;BME280;52465;51.560;14.368;2023-06-10T08:11:34;100353.41;;;22.46;52.90
65553;BME280;52465;51.560;14.368;2023-06-10T08:13:59;100345.72;;;22.50;52.84
65553;BME280;52465;51.560;14.368;2023-06-10T08:16:24;100338.91;;;22.42;53.17
65553;BME280;52465;51.560;14.368;2023-06-10T08:18:50;100332.50;;;22.43;52.74
65553;BME280;52465;51.560;14.368;2023-06-10T08:21:15;100339.38;;;22.51;52.76
65553;BME280;52465;51.560;14.368;2023-06-10T08:23:43;100320.09;;;22.37;52.79
65553;BME280;52465;51.560;14.368;2023-06-10T08:26:09;100347.47;;;22.56;52.76
65553;BME280;52465;51.560;14.368;2023-06-10T08:28:34;100331.81;;;22.48;52.79
65553;BME280;52465;51.560;14.368;2023-06-10T08:31:00;100335.88;;;22.50;52.75
65553;BME280;52465;51.560;14.368;2023-06-10T08:33:25;100349.69;;;22.59;52.75
65553;BME280;52465;51.560;14.368;2023-06-10T08:35:51;100357.44;;;22.60;52.82
65553;BME280;52465;51.560;14.368;2023-06-10T08:38:16;100342.97;;;22.56;52.66
65553;BME280;52465;51.560;14.368;2023-06-10T08:40:41;100349.69;;;22.59;52.73
65553;BME280;52465;51.560;14.368;2023-06-10T08:43:11;100347.38;;;22.62;52.96
65553;BME280;52465;51.560;14.368;2023-06-10T08:45:42;100335.28;;;22.60;53.02
65553;BME280;52465;51.560;14.368;2023-06-10T08:48:10;100341.44;;;22.60;52.92
65553;BME280;52465;51.560;14.368;2023-06-10T08:50:37;100362.19;;;22.70;52.84
65553;BME280;52465;51.560;14.368;2023-06-10T08:53:07;100365.22;;;22.74;52.73
65553;BME280;52465;51.560;14.368;2023-06-10T08:55:36;100363.13;;;22.76;53.03
65553;BME280;52465;51.560;14.368;2023-06-10T08:58:02;100355.13;;;22.76;52.59
65553;BME280;52465;51.560;14.368;2023-06-10T09:00:29;100350.81;;;22.75;52.45
65553;BME280;52465;51.560;14.368;2023-06-10T09:02:57;100349.53;;;22.77;52.89
65553;BME280;52465;51.560;14.368;2023-06-10T09:05:23;100357.91;;;22.81;52.53
65553;BME280;52465;51.560;14.368;2023-06-10T09:07:49;100363.25;;;22.81;52.77
65553;BME280;52465;51.560;14.368;2023-06-10T09:10:16;100353.59;;;22.80;52.90
65553;BME280;52465;51.560;14.368;2023-06-10T09:12:41;100343.88;;;22.74;52.70
65553;BME280;52465;51.560;14.368;2023-06-10T09:15:07;100357.19;;;22.85;52.43
65553;BME280;52465;51.560;14.368;2023-06-10T09:17:33;100348.84;;;22.82;52.45
65553;BME280;52465;51.560;14.368;2023-06-10T09:20:00;100356.75;;;22.88;52.63
65553;BME280;52465;51.560;14.368;2023-06-10T09:22:27;100355.94;;;22.88;52.62
65553;BME280;52465;51.560;14.368;2023-06-10T09:27:53;100354.78;;;22.95;52.30
65553;BME280;52465;51.560;14.368;2023-06-10T09:30:31;100355.22;;;22.92;52.70
65553;BME280;52465;51.560;14.368;2023-06-10T09:32:58;100359.63;;;22.99;52.57
65553;BME280;52465;51.560;14.368;2023-06-10T09:35:24;100359.38;;;23.00;52.82
65553;BME280;52465;51.560;14.368;2023-06-10T09:37:52;100356.59;;;23.07;52.43
65553;BME280;52465;51.560;14.368;2023-06-10T09:40:17;100343.47;;;23.05;52.53
65553;BME280;52465;51.560;14.368;2023-06-10T09:42:43;100353.19;;;23.11;52.07
65553;BME280;52465;51.560;14.368;2023-06-10T09:45:08;100347.06;;;23.11;52.54
65553;BME280;52465;51.560;14.368;2023-06-10T09:47:34;100347.75;;;23.18;52.62
65553;BME280;52465;51.560;14.368;2023-06-10T09:49:59;100342.41;;;23.06;52.72
65553;BME280;52465;51.560;14.368;2023-06-10T09:52:27;100353.50;;;23.27;52.23
65553;BME280;52465;51.560;14.368;2023-06-10T09:54:59;100347.94;;;23.28;52.03
65553;BME280;52465;51.560;14.368;2023-06-10T09:57:25;100350.69;;;23.33;52.48
65553;BME280;52465;51.560;14.368;2023-06-10T09:59:54;100368.69;;;23.38;52.13
65553;BME280;52465;51.560;14.368;2023-06-10T10:02:20;100359.41;;;23.40;52.02
65553;BME280;52465;51.560;14.368;2023-06-10T10:04:46;100360.44;;;23.39;52.04
65553;BME280;52465;51.560;14.368;2023-06-10T10:07:12;100356.25;;;23.43;51.90
65553;BME280;52465;51.560;14.368;2023-06-10T10:09:39;100356.00;;;23.45;52.01
65553;BME280;52465;51.560;14.368;2023-06-10T10:12:13;100357.84;;;23.44;52.32
65553;BME280;52465;51.560;14.368;2023-06-10T10:14:45;100345.19;;;23.40;52.16
65553;BME280;52465;51.560;14.368;2023-06-10T10:17:14;100350.34;;;23.41;52.29
65553;BME280;52465;51.560;14.368;2023-06-10T10:19:47;100350.44;;;23.46;52.01
65553;BME280;52465;51.560;14.368;2023-06-10T10:24:57;100353.09;;;23.46;52.33
65553;BME280;52465;51.560;14.368;2023-06-10T10:27:28;100343.44;;;23.45;52.30
65553;BME280;52465;51.560;14.368;2023-06-10T10:29:54;100348.41;;;23.54;51.90
65553;BME280;52465;51.560;14.368;2023-06-10T10:32:26;100354.31;;;23.56;51.90
65553;BME280;52465;51.560;14.368;2023-06-10T10:37:54;100346.91;;;23.58;52.04
65553;BME280;52465;51.560;14.368;2023-06-10T10:41:13;100308.63;;;23.40;51.61
65553;BME280;52465;51.560;14.368;2023-06-10T10:43:39;100327.13;;;23.59;51.49
65553;BME280;52465;51.560;14.368;2023-06-10T10:46:12;100338.75;;;23.64;51.50
65553;BME280;52465;51.560;14.368;2023-06-10T10:48:39;100332.34;;;23.65;51.65
65553;BME280;52465;51.560;14.368;2023-06-10T10:51:06;100318.97;;;23.65;51.77
65553;BME280;52465;51.560;14.368;2023-06-10T10:53:32;100332.91;;;23.67;51.56
65553;BME280;52465;51.560;14.368;2023-06-10T10:56:05;100323.97;;;23.62;51.55
65553;BME280;52465;51.560;14.368;2023-06-10T10:58:30;100330.66;;;23.76;51.36
65553;BME280;52465;51.560;14.368;2023-06-10T11:00:57;100336.00;;;23.76;51.52
65553;BME280;52465;51.560;14.368;2023-06-10T11:03:27;100326.38;;;23.75;51.07
65553;BME280;52465;51.560;14.368;2023-06-10T11:05:57;100318.50;;;23.68;51.10
65553;BME280;52465;51.560;14.368;2023-06-10T11:10:54;100325.22;;;23.71;50.83
65553;BME280;52465;51.560;14.368;2023-06-10T11:13:21;100322.38;;;23.78;51.21
65553;BME280;52465;51.560;14.368;2023-06-10T11:15:50;100274.56;;;23.47;51.18
65553;BME280;52465;51.560;14.368;2023-06-10T11:21:16;100324.34;;;23.82;51.06
65553;BME280;52465;51.560;14.368;2023-06-10T11:23:42;100313.22;;;23.73;50.90
65553;BME280;52465;51.560;14.368;2023-06-10T11:31:24;100296.78;;;23.65;50.69
65553;BME280;52465;51.560;14.368;2023-06-10T11:33:53;100325.41;;;23.81;50.36
65553;BME280;52465;51.560;14.368;2023-06-10T11:36:18;100316.78;;;23.79;50.27
65553;BME280;52465;51.560;14.368;2023-06-10T11:38:44;100315.50;;;23.82;50.40
65553;BME280;52465;51.560;14.368;2023-06-10T11:41:11;100319.56;;;23.84;50.42
65553;BME280;52465;51.560;14.368;2023-06-10T11:43:37;100281.19;;;23.62;50.13
65553;BME280;52465;51.560;14.368;2023-06-10T11:46:02;100308.84;;;23.84;50.05
65553;BME280;52465;51.560;14.368;2023-06-10T11:48:27;100299.81;;;23.85;50.27
65553;BME280;52465;51.560;14.368;2023-06-10T11:50:56;100295.56;;;23.72;49.96
65553;BME280;52465;51.560;14.368;2023-06-10T11:53:21;100309.03;;;23.94;49.63
65553;BME280;52465;51.560;14.368;2023-06-10T11:55:50;100301.25;;;23.93;49.52
65553;BME280;52465;51.560;14.368;2023-06-10T11:58:20;100300.91;;;23.89;49.65
65553;BME280;52465;51.560;14.368;2023-06-10T12:00:55;100313.41;;;24.00;49.51
65553;BME280;52465;51.560;14.368;2023-06-10T12:03:25;100310.72;;;24.00;49.38
65553;BME280;52465;51.560;14.368;2023-06-10T12:10:00;100265.59;;;23.87;49.35
65553;BME280;52465;51.560;14.368;2023-06-10T12:12:25;100294.75;;;24.06;49.02
65553;BME280;52465;51.560;14.368;2023-06-10T12:14:53;100283.81;;;24.07;49.30
65553;BME280;52465;51.560;14.368;2023-06-10T12:17:21;100284.66;;;24.08;49.12
65553;BME280;52465;51.560;14.368;2023-06-10T12:19:47;100290.56;;;24.10;48.98
65553;BME280;52465;51.560;14.368;2023-06-10T12:22:13;100275.97;;;24.00;49.08
65553;BME280;52465;51.560;14.368;2023-06-10T12:28:27;100274.59;;;24.15;49.17
65553;BME280;52465;51.560;14.368;2023-06-10T12:36:38;100269.78;;;24.17;48.49
65553;BME280;52465;51.560;14.368;2023-06-10T12:39:04;100266.84;;;24.18;48.56
65553;BME280;52465;51.560;14.368;2023-06-10T12:41:29;100265.75;;;24.14;48.36
65553;BME280;52465;51.560;14.368;2023-06-10T12:43:54;100262.50;;;24.12;48.46
65553;BME280;52465;51.560;14.368;2023-06-10T12:46:20;100267.84;;;24.12;48.60
65553;BME280;52465;51.560;14.368;2023-06-10T12:48:51;100267.38;;;24.15;48.30
65553;BME280;52465;51.560;14.368;2023-06-10T12:51:17;100274.66;;;24.20;48.39
65553;BME280;52465;51.560;14.368;2023-06-10T12:53:43;100258.78;;;24.13;48.46
65553;BME280;52465;51.560;14.368;2023-06-10T12:56:09;100274.66;;;24.20;48.50
65553;BME280;52465;51.560;14.368;2023-06-10T12:58:34;100255.59;;;24.16;48.38
65553;BME280;52465;51.560;14.368;2023-06-10T13:01:00;100260.78;;;24.23;48.18
65553;BME280;52465;51.560;14.368;2023-06-10T13:03:25;100270.41;;;24.24;48.11
65553;BME280;52465;51.560;14.368;2023-06-10T13:05:51;100246.03;;;24.20;48.00
65553;BME280;52465;51.560;14.368;2023-06-10T13:08:16;100252.53;;;24.24;48.09
65553;BME280;52465;51.560;14.368;2023-06-10T13:10:42;100221.50;;;24.07;48.08
65553;BME280;52465;51.560;14.368;2023-06-10T13:13:07;100254.44;;;24.29;47.95
65553;BME280;52465;51.560;14.368;2023-06-10T13:15:34;100244.72;;;24.23;47.90
65553;BME280;52465;51.560;14.368;2023-06-10T13:18:03;100255.50;;;24.28;47.91
65553;BME280;52465;51.560;14.368;2023-06-10T13:20:29;100240.63;;;24.15;47.63
65553;BME280;52465;51.560;14.368;2023-06-10T13:22:55;100242.03;;;24.23;47.70
65553;BME280;52465;51.560;14.368;2023-06-10T13:25:20;100232.41;;;24.22;47.74
65553;BME280;52465;51.560;14.368;2023-06-10T13:27:45;100246.41;;;24.29;47.61
65553;BME280;52465;51.560;14.368;2023-06-10T13:30:11;100214.03;;;24.09;47.56